Time;durP1;ratioP1;P1;durP2;ratioP2;P2;SDS_P1;SDS_P2;PMS_P1;PMS_P2;Temp;Humidity;BMP_temperature;BMP_pressure;BME280_temperature;BME280_humidity;BME280_pressure;Samples;Min_cycle;Max_cycle;Signal;HPM_P1;HPM_P2
2023/03/10 00:01:16;;;;;;;17.02;10.48;;;1.40;99.90;;;;;;5054044;28;20196;-63
2023/03/10 00:03:44;;;;;;;15.43;9.73;;;1.40;99.90;;;;;;5053301;28;20308;-63
2023/03/10 00:06:13;;;;;;;16.33;9.68;;;1.40;99.90;;;;;;5053326;28;20247;-64
2023/03/10 00:08:40;;;;;;;18.60;10.43;;;1.40;99.90;;;;;;5054238;28;20201;-65
2023/03/10 00:11:07;;;;;;;16.17;9.73;;;1.40;99.90;;;;;;5053989;28;20212;-63
2023/03/10 00:13:34;;;;;;;19.35;11.50;;;1.40;99.90;;;;;;5053920;28;20624;-63
2023/03/10 00:16:01;;;;;;;17.75;11.43;;;1.40;99.90;;;;;;5053400;28;20611;-63
2023/03/10 00:18:29;;;;;;;17.80;10.70;;;1.40;99.90;;;;;;5053684;28;20694;-64
2023/03/10 00:20:57;;;;;;;19.40;10.20;;;1.40;99.90;;;;;;5053102;28;20667;-64
2023/03/10 00:23:25;;;;;;;16.73;10.65;;;1.40;99.90;;;;;;5054372;28;20230;-63
2023/03/10 00:25:56;;;;;;;18.17;10.18;;;1.40;99.90;;;;;;5054393;28;20197;-64
2023/03/10 00:28:23;;;;;;;26.02;10.70;;;1.40;99.90;;;;;;5057679;28;20202;-63
2023/03/10 00:31:00;;;;;;;18.30;10.68;;;1.40;99.90;;;;;;5057574;28;20216;-63
2023/03/10 00:33:29;;;;;;;15.45;9.90;;;1.40;99.90;;;;;;5057515;28;20232;-64
2023/03/10 00:36:04;;;;;;;14.00;7.97;;;1.40;99.90;;;;;;5057748;28;20221;-64
2023/03/10 00:38:31;;;;;;;13.02;8.13;;;1.40;99.90;;;;;;5056841;28;20580;-63
2023/03/10 00:40:59;;;;;;;16.58;10.05;;;1.40;99.90;;;;;;5057752;28;20675;-64
2023/03/10 00:43:26;;;;;;;17.02;9.40;;;1.40;99.90;;;;;;5058679;28;20221;-63
2023/03/10 00:45:53;;;;;;;14.55;9.32;;;1.40;99.90;;;;;;5059160;28;20205;-62
2023/03/10 00:48:20;;;;;;;14.45;8.20;;;1.40;99.90;;;;;;5060309;28;20205;-63
2023/03/10 00:50:48;;;;;;;14.35;9.70;;;1.40;99.90;;;;;;5060003;28;20546;-63
2023/03/10 00:53:15;;;;;;;13.10;9.13;;;1.40;99.90;;;;;;5059756;28;20242;-63
2023/03/10 00:55:42;;;;;;;16.60;9.38;;;1.40;99.90;;;;;;5060444;28;20236;-63
2023/03/10 00:58:09;;;;;;;15.93;9.05;;;1.40;99.90;;;;;;5060167;28;20211;-63
2023/03/10 01:00:36;;;;;;;11.15;6.63;;;1.50;99.90;;;;;;5060323;28;20275;-62
2023/03/10 01:03:02;;;;;;;12.13;6.85;;;1.50;99.90;;;;;;5060411;28;20540;-63
2023/03/10 01:05:29;;;;;;;13.60;7.75;;;1.50;99.90;;;;;;5059412;28;20209;-62
2023/03/10 01:07:57;;;;;;;11.70;7.35;;;1.50;99.90;;;;;;5058648;28;20213;-63
2023/03/10 01:10:24;;;;;;;10.48;6.68;;;1.50;99.90;;;;;;5058410;28;20209;-64
2023/03/10 01:12:51;;;;;;;13.20;8.32;;;1.50;99.90;;;;;;5058544;28;20229;-62
2023/03/10 01:15:18;;;;;;;12.68;7.90;;;1.50;99.90;;;;;;5058648;28;20202;-62
2023/03/10 01:17:44;;;;;;;10.30;6.45;;;1.50;99.90;;;;;;5058419;28;20221;-62
2023/03/10 01:20:14;;;;;;;12.35;7.40;;;1.50;99.90;;;;;;5058248;28;20236;-62
2023/03/10 01:22:40;;;;;;;11.02;6.82;;;1.50;99.90;;;;;;5058615;28;20225;-63
2023/03/10 01:25:12;;;;;;;13.05;7.30;;;1.50;99.90;;;;;;5058717;28;20256;-63
2023/03/10 01:27:39;;;;;;;12.50;6.55;;;1.60;99.90;;;;;;5058368;28;20193;-62
2023/03/10 01:30:06;;;;;;;10.48;6.57;;;1.50;99.90;;;;;;5059183;28;20580;-64
2023/03/10 01:32:33;;;;;;;9.90;6.60;;;1.50;99.90;;;;;;5058528;28;20233;-63
2023/03/10 01:35:00;;;;;;;10.13;7.13;;;1.50;99.90;;;;;;5059219;28;20201;-63
2023/03/10 01:37:27;;;;;;;12.23;6.60;;;1.50;99.90;;;;;;5057205;28;20595;-62
2023/03/10 01:39:54;;;;;;;12.00;6.70;;;1.50;99.90;;;;;;5056870;28;20292;-62
2023/03/10 01:42:22;;;;;;;7.25;5.35;;;1.50;99.90;;;;;;5057298;28;20221;-62
2023/03/10 01:45:05;;;;;;;7.80;5.55;;;1.50;99.90;;;;;;5057223;28;20668;-62
2023/03/10 01:47:31;;;;;;;10.20;5.97;;;1.50;99.90;;;;;;5057639;28;20182;-63
2023/03/10 01:49:58;;;;;;;10.18;6.35;;;1.50;99.90;;;;;;5058092;28;20690;-62
2023/03/10 01:52:29;;;;;;;9.90;6.15;;;1.50;99.90;;;;;;5057687;28;20229;-63
2023/03/10 01:54:59;;;;;;;8.88;5.80;;;1.50;99.90;;;;;;5057073;28;20636;-63
2023/03/10 01:57:31;;;;;;;11.77;6.13;;;1.50;99.90;;;;;;5057677;28;20244;-63
2023/03/10 01:59:59;;;;;;;10.65;5.93;;;1.50;99.90;;;;;;5056927;28;20186;-62
2023/03/10 02:02:26;;;;;;;10.85;6.13;;;1.50;99.90;;;;;;5056612;28;20312;-63
2023/03/10 02:04:54;;;;;;;9.63;6.30;;;1.50;99.90;;;;;;5057532;28;20209;-62
2023/03/10 02:07:24;;;;;;;7.63;5.50;;;1.50;99.90;;;;;;5056516;28;20697;-62
2023/03/10 02:09:52;;;;;;;8.95;5.45;;;1.50;99.90;;;;;;5056666;28;20679;-63
2023/03/10 02:12:20;;;;;;;11.00;6.88;;;1.50;99.90;;;;;;5056754;28;20317;-62
2023/03/10 02:14:50;;;;;;;9.57;6.00;;;1.50;99.90;;;;;;5056351;28;20198;-63
2023/03/10 02:17:19;;;;;;;7.50;5.32;;;1.50;99.90;;;;;;5056456;28;20225;-62
2023/03/10 02:19:58;;;;;;;7.85;5.75;;;1.50;99.90;;;;;;5056805;28;20205;-63
2023/03/10 02:22:24;;;;;;;6.65;5.00;;;1.50;99.90;;;;;;5057159;28;20226;-63
2023/03/10 02:24:53;;;;;;;8.40;6.00;;;1.50;99.90;;;;;;5056276;28;20292;-63
2023/03/10 02:27:24;;;;;;;8.88;6.07;;;1.50;99.90;;;;;;5056155;28;20204;-63
2023/03/10 02:29:55;;;;;;;8.45;6.32;;;1.50;99.90;;;;;;5056093;28;20560;-64
2023/03/10 02:32:23;;;;;;;11.55;7.30;;;1.50;99.90;;;;;;5056185;28;20730;-63
2023/03/10 02:34:50;;;;;;;8.85;5.35;;;1.50;99.90;;;;;;5055937;28;20206;-63
2023/03/10 02:37:21;;;;;;;12.50;6.75;;;1.50;99.90;;;;;;5056037;28;20217;-64
2023/03/10 02:39:48;;;;;;;8.50;6.20;;;1.50;99.90;;;;;;5055880;28;20217;-63
2023/03/10 02:42:15;;;;;;;9.80;6.13;;;1.50;99.90;;;;;;5055806;28;20591;-63
2023/03/10 02:44:45;;;;;;;11.20;6.90;;;1.50;99.90;;;;;;5055318;28;20573;-63
2023/03/10 02:47:12;;;;;;;9.15;5.78;;;1.40;99.90;;;;;;5055516;28;20193;-62
2023/03/10 02:49:41;;;;;;;8.50;5.40;;;1.40;99.90;;;;;;5054547;28;20205;-63
2023/03/10 02:52:16;;;;;;;12.55;5.80;;;1.40;99.90;;;;;;5055294;28;20241;-62
2023/03/10 02:54:43;;;;;;;8.10;5.10;;;1.40;99.90;;;;;;5055348;28;20541;-62
2023/03/10 02:57:09;;;;;;;6.20;4.82;;;1.40;99.90;;;;;;5055417;28;20221;-63
2023/03/10 02:59:36;;;;;;;8.02;4.97;;;1.50;99.90;;;;;;5056109;28;20208;-63
2023/03/10 03:02:05;;;;;;;7.65;5.20;;;1.40;99.90;;;;;;5055407;28;20534;-63
2023/03/10 03:04:31;;;;;;;8.00;5.65;;;1.50;99.90;;;;;;5055387;28;20205;-63
2023/03/10 03:06:58;;;;;;;6.57;4.38;;;1.50;99.90;;;;;;5055189;28;20255;-64
2023/03/10 03:09:25;;;;;;;9.13;5.82;;;1.50;99.90;;;;;;5055426;28;20211;-63
2023/03/10 03:11:52;;;;;;;9.15;5.18;;;1.50;99.90;;;;;;5055109;28;20288;-62
2023/03/10 03:14:18;;;;;;;6.10;4.57;;;1.50;99.90;;;;;;5054966;28;20569;-62
2023/03/10 03:16:45;;;;;;;5.75;4.40;;;1.50;99.90;;;;;;5055421;28;20221;-63
2023/03/10 03:19:13;;;;;;;5.57;4.10;;;1.50;99.90;;;;;;5055243;28;20209;-61
2023/03/10 03:21:40;;;;;;;6.53;4.78;;;1.40;99.90;;;;;;5055385;28;20234;-63
2023/03/10 03:24:07;;;;;;;4.78;3.45;;;1.40;99.90;;;;;;5054837;28;20706;-63
2023/03/10 03:26:34;;;;;;;4.57;3.97;;;1.40;99.90;;;;;;5055436;28;20562;-63
2023/03/10 03:29:00;;;;;;;5.72;4.45;;;1.40;99.90;;;;;;5054503;28;20205;-63
2023/03/10 03:31:27;;;;;;;6.55;4.07;;;1.40;99.90;;;;;;5054475;28;20304;-60
2023/03/10 03:33:54;;;;;;;6.10;3.85;;;1.40;99.90;;;;;;5054332;28;20217;-60
2023/03/10 03:36:22;;;;;;;4.85;3.97;;;1.40;99.90;;;;;;5054717;28;20206;-63
2023/03/10 03:38:49;;;;;;;7.78;4.82;;;1.40;99.90;;;;;;5054543;28;20205;-63
2023/03/10 03:41:15;;;;;;;7.53;4.78;;;1.40;99.90;;;;;;5054486;28;20209;-62
2023/03/10 03:43:42;;;;;;;5.32;4.63;;;1.40;99.90;;;;;;5054559;28;20233;-63
2023/03/10 03:46:09;;;;;;;6.35;5.20;;;1.40;99.90;;;;;;5054094;28;20208;-62
2023/03/10 03:48:37;;;;;;;5.22;4.30;;;1.40;99.90;;;;;;5054237;28;20194;-62
2023/03/10 03:51:04;;;;;;;4.32;3.90;;;1.50;99.90;;;;;;5054303;28;20577;-62
2023/03/10 03:53:33;;;;;;;5.90;4.10;;;1.50;99.90;;;;;;5054583;28;20240;-62
2023/03/10 03:56:00;;;;;;;5.85;3.80;;;1.50;99.90;;;;;;5054575;28;20201;-62
2023/03/10 03:58:27;;;;;;;7.55;4.63;;;1.50;99.90;;;;;;5054795;28;20228;-62
2023/03/10 04:00:54;;;;;;;5.45;4.15;;;1.50;99.90;;;;;;5054266;28;20197;-63
2023/03/10 04:03:20;;;;;;;6.05;4.72;;;1.60;99.90;;;;;;5054532;28;20247;-63
2023/03/10 04:05:47;;;;;;;6.53;4.97;;;1.50;99.90;;;;;;5054236;28;20288;-62
2023/03/10 04:11:19;;;;;;;6.70;4.10;;;1.60;99.90;;;;;;5107914;27;1447894;-62
2023/03/10 04:13:46;;;;;;;4.97;3.80;;;1.60;99.90;;;;;;5117425;28;20465;-62
2023/03/10 04:16:12;;;;;;;6.70;4.55;;;1.60;99.90;;;;;;5115034;28;20211;-62
2023/03/10 04:18:39;;;;;;;6.43;4.28;;;1.70;99.90;;;;;;5114043;28;20210;-62
2023/03/10 04:21:06;;;;;;;6.25;4.97;;;1.60;99.90;;;;;;5114163;28;20576;-62
2023/03/10 04:23:33;;;;;;;6.13;4.40;;;1.70;99.90;;;;;;5114142;28;20253;-63
2023/03/10 04:26:00;;;;;;;5.95;4.82;;;1.70;99.90;;;;;;5116482;28;20200;-65
2023/03/10 04:28:28;;;;;;;6.20;5.50;;;1.70;99.90;;;;;;5116645;28;20661;-63
2023/03/10 04:30:55;;;;;;;5.10;4.60;;;1.80;99.90;;;;;;5115863;28;20212;-64
2023/03/10 04:33:21;;;;;;;5.53;3.95;;;1.80;99.90;;;;;;5116156;28;20223;-64
2023/03/10 04:35:50;;;;;;;6.85;4.65;;;1.80;99.90;;;;;;5116348;28;20200;-63
2023/03/10 04:38:17;;;;;;;4.25;3.92;;;1.80;99.90;;;;;;5113783;28;20229;-63
2023/03/10 04:40:43;;;;;;;5.60;4.68;;;1.80;99.90;;;;;;5113469;28;20196;-62
2023/03/10 04:43:10;;;;;;;7.05;4.47;;;1.80;99.90;;;;;;5112628;28;20216;-62
2023/03/10 04:45:38;;;;;;;7.05;4.68;;;1.90;99.90;;;;;;5112169;28;20203;-62
2023/03/10 04:48:05;;;;;;;4.35;3.95;;;1.90;99.90;;;;;;5112316;28;20211;-62
2023/03/10 04:50:32;;;;;;;6.32;4.40;;;1.90;99.90;;;;;;5112006;28;20234;-63
2023/03/10 04:52:59;;;;;;;4.60;4.03;;;1.90;99.90;;;;;;5112737;28;20226;-62
2023/03/10 04:55:25;;;;;;;5.80;4.88;;;1.90;99.90;;;;;;5113726;28;20211;-63
2023/03/10 04:57:52;;;;;;;5.53;4.65;;;1.90;99.90;;;;;;5115389;28;20299;-64
2023/03/10 05:00:19;;;;;;;8.98;5.60;;;1.90;99.90;;;;;;5113678;28;20196;-64
2023/03/10 05:02:47;;;;;;;7.65;5.35;;;1.90;99.90;;;;;;5112558;28;20257;-63
2023/03/10 05:05:14;;;;;;;6.63;4.72;;;1.90;99.90;;;;;;5112857;28;20200;-63
2023/03/10 05:07:41;;;;;;;7.88;5.97;;;1.90;99.90;;;;;;5113290;28;20207;-63
2023/03/10 05:10:10;;;;;;;7.15;4.60;;;1.90;99.90;;;;;;5111783;28;20224;-62
2023/03/10 05:12:38;;;;;;;7.32;5.60;;;1.90;99.90;;;;;;5111541;28;20219;-62
2023/03/10 05:15:06;;;;;;;8.00;6.25;;;2.00;99.90;;;;;;5111814;28;20523;-62
2023/03/10 05:17:33;;;;;;;8.77;6.20;;;2.00;99.90;;;;;;5110803;28;20200;-63
2023/03/10 05:20:01;;;;;;;9.98;6.82;;;2.00;99.90;;;;;;5109983;28;20573;-64
2023/03/10 05:22:27;;;;;;;7.38;5.65;;;2.00;99.90;;;;;;5097972;28;20242;-63
2023/03/10 05:24:54;;;;;;;6.18;5.57;;;2.00;99.90;;;;;;5097694;28;20286;-62
2023/03/10 05:27:21;;;;;;;5.68;4.82;;;2.10;99.90;;;;;;5099856;28;20208;-63
2023/03/10 05:29:48;;;;;;;10.77;6.32;;;2.10;99.90;;;;;;5101262;28;20223;-63
2023/03/10 05:32:15;;;;;;;8.23;6.00;;;2.10;99.90;;;;;;5101754;28;20254;-63
2023/03/10 05:34:41;;;;;;;7.55;5.45;;;2.10;99.90;;;;;;5100732;28;20227;-64
2023/03/10 05:37:09;;;;;;;9.75;6.72;;;2.10;99.90;;;;;;5099111;28;20559;-62
2023/03/10 05:39:36;;;;;;;8.07;6.35;;;2.10;99.90;;;;;;5099317;28;20206;-63
2023/03/10 05:42:03;;;;;;;7.53;6.30;;;2.10;99.90;;;;;;5098814;28;20220;-62
2023/03/10 05:44:30;;;;;;;8.85;6.30;;;2.20;99.90;;;;;;5098954;28;20545;-63
2023/03/10 05:46:57;;;;;;;8.20;6.32;;;2.20;99.90;;;;;;5099808;28;20207;-63
2023/03/10 05:49:24;;;;;;;7.85;6.50;;;2.20;99.90;;;;;;5099203;28;20586;-63
2023/03/10 05:51:51;;;;;;;8.93;6.72;;;2.20;99.90;;;;;;5099924;28;20264;-64
2023/03/10 05:54:19;;;;;;;8.45;6.28;;;2.20;99.90;;;;;;5099650;28;20752;-64
2023/03/10 05:56:46;;;;;;;9.15;6.03;;;2.20;99.90;;;;;;5099265;28;20207;-64
2023/03/10 05:59:13;;;;;;;8.75;6.75;;;2.20;99.90;;;;;;5100135;28;20208;-63
2023/03/10 06:01:40;;;;;;;8.00;6.15;;;2.20;99.90;;;;;;5099011;28;20197;-63
2023/03/10 06:04:07;;;;;;;8.32;4.90;;;2.20;99.90;;;;;;5096892;28;20216;-63
2023/03/10 06:06:34;;;;;;;6.10;5.50;;;2.20;99.90;;;;;;5096767;28;20200;-65
2023/03/10 06:09:01;;;;;;;12.77;5.43;;;2.20;99.90;;;;;;5093062;28;20199;-64
2023/03/10 06:11:29;;;;;;;6.47;5.00;;;2.10;99.90;;;;;;5095192;28;20231;-63
2023/03/10 06:13:56;;;;;;;6.60;5.93;;;2.10;99.90;;;;;;5093347;28;20212;-63
2023/03/10 06:16:22;;;;;;;5.68;5.15;;;2.10;99.90;;;;;;5096862;28;20196;-65
2023/03/10 06:18:53;;;;;;;5.10;4.60;;;2.10;99.90;;;;;;5094114;28;20199;-62
2023/03/10 06:21:20;;;;;;;4.95;3.92;;;2.10;99.90;;;;;;5095830;28;20248;-62
2023/03/10 06:23:46;;;;;;;4.68;4.03;;;2.20;99.90;;;;;;5096023;28;20212;-64
2023/03/10 06:26:15;;;;;;;4.80;4.20;;;2.20;99.90;;;;;;5096605;28;20296;-64
2023/03/10 06:28:45;;;;;;;5.50;4.55;;;2.20;99.90;;;;;;5096736;28;20200;-64
2023/03/10 06:31:15;;;;;;;6.15;3.90;;;2.20;99.90;;;;;;5095695;28;20212;-64
2023/03/10 06:33:41;;;;;;;4.40;3.53;;;2.20;99.90;;;;;;5093002;28;20223;-65
2023/03/10 06:36:10;;;;;;;3.88;3.42;;;2.20;99.90;;;;;;5094336;28;20209;-64
2023/03/10 06:38:37;;;;;;;4.60;4.10;;;2.20;99.90;;;;;;5094895;28;20235;-63
2023/03/10 06:41:04;;;;;;;5.13;4.63;;;2.20;99.90;;;;;;5087196;28;20197;-63
2023/03/10 06:43:32;;;;;;;5.07;4.28;;;2.20;99.90;;;;;;5075830;28;20228;-63
2023/03/10 06:46:03;;;;;;;5.63;5.13;;;2.20;99.90;;;;;;5085876;28;20654;-63
2023/03/10 06:48:30;;;;;;;5.38;4.72;;;2.20;99.90;;;;;;5089902;28;20196;-64
2023/03/10 06:50:57;;;;;;;5.35;4.85;;;2.20;99.90;;;;;;5095218;28;20224;-63
2023/03/10 06:53:25;;;;;;;4.88;4.05;;;2.30;99.90;;;;;;5095421;28;20230;-62
2023/03/10 06:55:59;;;;;;;5.07;4.57;;;2.30;99.90;;;;;;5093885;28;20200;-62
2023/03/10 06:58:27;;;;;;;4.88;4.45;;;2.30;99.90;;;;;;5095826;28;20248;-63
2023/03/10 07:00:53;;;;;;;7.20;4.82;;;2.30;99.90;;;;;;5094585;28;20197;-64
2023/03/10 07:03:23;;;;;;;4.53;3.60;;;2.30;99.90;;;;;;5093752;28;20231;-64
2023/03/10 07:05:50;;;;;;;5.57;4.60;;;2.30;99.90;;;;;;5089624;28;20192;-65
2023/03/10 07:08:17;;;;;;;5.15;4.65;;;2.30;99.90;;;;;;5092396;28;20192;-64
2023/03/10 07:10:44;;;;;;;6.35;4.55;;;2.40;99.90;;;;;;5092776;28;20226;-63
2023/03/10 07:13:14;;;;;;;5.85;4.95;;;2.40;99.90;;;;;;5093322;28;20297;-64
2023/03/10 07:15:41;;;;;;;5.78;4.85;;;2.40;99.90;;;;;;5094957;28;20209;-65
2023/03/10 07:18:08;;;;;;;5.30;4.78;;;2.40;99.90;;;;;;5093393;28;20664;-63
2023/03/10 07:20:39;;;;;;;5.40;4.85;;;2.40;99.90;;;;;;5091154;28;20251;-65
2023/03/10 07:23:06;;;;;;;6.78;4.65;;;2.50;99.90;;;;;;5094775;28;20560;-64
2023/03/10 07:25:35;;;;;;;8.45;5.10;;;2.50;99.90;;;;;;5095584;28;20206;-64
2023/03/10 07:28:02;;;;;;;5.72;4.15;;;2.60;99.90;;;;;;5095537;28;20304;-64
2023/03/10 07:30:28;;;;;;;5.45;4.65;;;2.60;99.90;;;;;;5094756;28;20214;-65
2023/03/10 07:32:55;;;;;;;5.10;4.60;;;2.60;99.90;;;;;;5094991;28;20581;-64
2023/03/10 07:35:22;;;;;;;4.60;3.75;;;2.70;99.90;;;;;;5094368;28;20200;-63
2023/03/10 07:37:50;;;;;;;5.40;4.05;;;2.70;99.90;;;;;;5094886;28;20200;-63
2023/03/10 07:40:21;;;;;;;5.68;4.70;;;2.70;99.90;;;;;;5094075;28;20200;-65
2023/03/10 07:42:48;;;;;;;4.65;4.18;;;2.60;99.90;;;;;;5094303;28;20240;-64
2023/03/10 07:45:15;;;;;;;5.32;4.13;;;2.70;99.90;;;;;;5094256;28;20570;-62
2023/03/10 07:47:41;;;;;;;5.35;4.15;;;2.60;99.90;;;;;;5095345;28;20577;-64
2023/03/10 07:50:10;;;;;;;7.00;5.80;;;2.70;99.90;;;;;;5093882;28;20295;-62
2023/03/10 07:52:36;;;;;;;5.25;4.47;;;2.70;99.90;;;;;;5095068;28;20247;-63
2023/03/10 07:55:05;;;;;;;4.75;4.20;;;2.80;99.90;;;;;;5093886;28;20211;-66
2023/03/10 07:57:32;;;;;;;8.32;5.45;;;2.80;99.90;;;;;;5094851;28;20688;-64
2023/03/10 07:59:59;;;;;;;4.97;4.47;;;2.80;99.90;;;;;;5093866;28;20202;-64
2023/03/10 08:02:26;;;;;;;6.00;4.30;;;2.80;99.90;;;;;;5094578;28;20707;-64
2023/03/10 08:04:53;;;;;;;5.10;3.45;;;2.80;99.90;;;;;;5093618;28;20207;-63
2023/03/10 08:07:19;;;;;;;5.22;4.55;;;2.90;99.90;;;;;;5094568;28;20200;-63
2023/03/10 08:09:49;;;;;;;4.95;4.07;;;2.90;99.90;;;;;;5095000;28;20212;-64
2023/03/10 08:12:18;;;;;;;4.97;3.70;;;3.00;99.90;;;;;;5093808;28;20231;-63
2023/03/10 08:14:45;;;;;;;5.68;4.85;;;3.00;99.90;;;;;;5095143;28;20200;-63
2023/03/10 08:17:11;;;;;;;4.68;4.25;;;3.00;99.90;;;;;;5093009;28;20204;-64
2023/03/10 08:19:38;;;;;;;9.77;5.00;;;2.90;99.90;;;;;;5093414;28;20216;-62
2023/03/10 08:22:05;;;;;;;5.05;4.30;;;2.90;99.90;;;;;;5094889;28;20287;-62
2023/03/10 08:24:32;;;;;;;6.78;4.30;;;2.80;99.90;;;;;;5092596;28;20204;-63
2023/03/10 08:26:59;;;;;;;5.32;4.03;;;2.80;99.90;;;;;;5094460;28;20204;-62
2023/03/10 08:29:27;;;;;;;3.70;3.25;;;2.80;99.90;;;;;;5094867;28;20204;-63
2023/03/10 08:31:54;;;;;;;4.40;3.53;;;2.70;99.90;;;;;;5091850;28;20693;-62
2023/03/10 08:34:21;;;;;;;5.28;4.40;;;2.70;99.90;;;;;;5094302;28;20197;-62
2023/03/10 08:36:48;;;;;;;5.47;3.90;;;2.70;99.90;;;;;;5094748;28;20226;-62
2023/03/10 08:39:15;;;;;;;5.15;4.13;;;2.80;99.90;;;;;;5093241;28;20204;-63
2023/03/10 08:41:45;;;;;;;4.75;3.80;;;2.90;99.90;;;;;;5095056;28;20200;-63
2023/03/10 08:44:14;;;;;;;5.60;4.38;;;3.10;99.90;;;;;;5094173;28;20189;-62
2023/03/10 08:46:43;;;;;;;6.63;5.07;;;3.40;99.90;;;;;;5093919;28;20631;-64
2023/03/10 08:49:10;;;;;;;5.10;4.60;;;3.60;99.90;;;;;;5094365;28;20200;-64
2023/03/10 08:51:37;;;;;;;4.45;3.30;;;3.70;99.90;;;;;;5094898;28;20215;-62
2023/03/10 08:54:05;;;;;;;4.40;3.80;;;3.80;99.90;;;;;;5094240;28;20648;-63
2023/03/10 08:56:32;;;;;;;4.78;3.97;;;3.80;99.90;;;;;;5096069;28;20200;-65
2023/03/10 08:58:59;;;;;;;5.05;3.22;;;3.90;99.90;;;;;;5098885;28;20611;-64
2023/03/10 09:01:28;;;;;;;5.10;4.60;;;4.00;99.90;;;;;;5098325;28;20250;-64
2023/03/10 09:03:56;;;;;;;3.92;3.00;;;4.10;99.90;;;;;;5098076;28;20231;-63
2023/03/10 09:06:23;;;;;;;4.88;3.45;;;4.10;99.90;;;;;;5097549;28;20201;-64
2023/03/10 09:08:50;;;;;;;4.70;3.95;;;4.10;99.90;;;;;;5097664;28;20200;-63
2023/03/10 09:11:19;;;;;;;3.70;3.33;;;4.10;99.90;;;;;;5096831;28;20216;-62
2023/03/10 09:13:46;;;;;;;4.20;3.33;;;4.00;99.90;;;;;;5097120;28;20223;-63
2023/03/10 09:16:13;;;;;;;4.00;3.42;;;4.00;99.90;;;;;;5096897;28;20196;-63
2023/03/10 09:18:40;;;;;;;4.18;3.78;;;4.00;99.90;;;;;;5097329;28;20196;-63
2023/03/10 09:21:10;;;;;;;5.57;4.13;;;4.00;99.90;;;;;;5097623;28;20246;-63
2023/03/10 09:23:37;;;;;;;5.72;4.13;;;4.10;99.90;;;;;;5097089;28;20220;-63
2023/03/10 09:26:04;;;;;;;6.40;3.55;;;4.20;99.90;;;;;;5097652;28;20209;-63
2023/03/10 09:28:31;;;;;;;7.82;3.70;;;4.20;99.90;;;;;;5097864;28;20207;-63
2023/03/10 09:30:58;;;;;;;5.93;3.20;;;4.20;99.90;;;;;;5097617;28;20226;-62
2023/03/10 09:33:25;;;;;;;4.18;3.70;;;4.10;99.90;;;;;;5096819;28;20228;-64
2023/03/10 09:35:51;;;;;;;4.38;3.65;;;4.00;99.90;;;;;;5097691;28;20200;-63
2023/03/10 09:38:20;;;;;;;3.92;3.50;;;3.90;99.90;;;;;;5097658;28;20204;-64
2023/03/10 09:40:53;;;;;;;3.42;3.13;;;3.90;99.90;;;;;;5098367;28;20206;-65
2023/03/10 09:43:22;;;;;;;3.42;3.10;;;3.80;99.90;;;;;;5097774;28;20230;-65
2023/03/10 09:45:55;;;;;;;4.50;3.70;;;3.90;99.90;;;;;;5097205;28;20206;-65
2023/03/10 09:48:36;;;;;;;3.83;3.45;;;4.00;99.90;;;;;;5097385;28;20184;-67
2023/03/10 09:51:14;;;;;;;3.95;3.35;;;4.00;99.90;;;;;;5096858;28;20208;-65
2023/03/10 09:53:58;;;;;;;3.60;3.05;;;4.00;99.90;;;;;;5097277;28;20223;-67
2023/03/10 09:56:30;;;;;;;4.32;3.42;;;3.90;99.90;;;;;;5096483;28;20378;-66
2023/03/10 09:58:59;;;;;;;3.90;3.60;;;3.90;99.90;;;;;;5097042;28;20226;-67
2023/03/10 10:01:29;;;;;;;3.67;3.38;;;3.90;99.90;;;;;;5096740;28;20205;-67
2023/03/10 10:04:00;;;;;;;4.43;3.97;;;3.90;99.90;;;;;;5096681;28;20232;-66
2023/03/10 10:06:29;;;;;;;6.57;3.40;;;4.00;99.90;;;;;;5097059;28;20638;-67
2023/03/10 10:09:00;;;;;;;5.38;4.05;;;4.10;99.90;;;;;;5096770;28;20204;-66
2023/03/10 10:11:27;;;;;;;4.30;3.90;;;4.10;99.90;;;;;;5096595;28;20221;-66
2023/03/10 10:14:18;;;;;;;4.25;3.47;;;4.10;99.90;;;;;;5096032;28;20220;-66
2023/03/10 10:16:53;;;;;;;5.53;4.50;;;4.00;99.90;;;;;;5095920;28;20192;-65
2023/03/10 10:19:21;;;;;;;4.97;4.32;;;4.00;99.90;;;;;;5095928;28;20184;-65
2023/03/10 10:21:55;;;;;;;5.45;4.95;;;4.00;99.90;;;;;;5096126;28;20192;-65
2023/03/10 10:24:24;;;;;;;7.38;5.13;;;4.10;99.90;;;;;;5096057;28;20208;-64
2023/03/10 10:26:50;;;;;;;8.75;5.22;;;4.20;99.90;;;;;;5095886;28;20211;-66
2023/03/10 10:29:21;;;;;;;6.85;4.72;;;4.20;99.90;;;;;;5095486;28;20291;-64
2023/03/10 10:32:04;;;;;;;10.15;5.97;;;4.20;99.90;;;;;;5095511;28;20266;-67
2023/03/10 10:34:32;;;;;;;8.23;4.55;;;4.10;99.90;;;;;;5096301;28;20192;-67
2023/03/10 10:36:59;;;;;;;7.85;5.07;;;4.00;99.90;;;;;;5095506;28;20295;-66
2023/03/10 10:39:31;;;;;;;5.80;4.97;;;4.00;99.90;;;;;;5095869;28;20238;-65
2023/03/10 10:42:13;;;;;;;6.35;5.32;;;4.00;99.90;;;;;;5095802;28;20207;-66
2023/03/10 10:44:42;;;;;;;6.53;4.50;;;4.00;99.90;;;;;;5095919;28;20194;-68
2023/03/10 10:47:25;;;;;;;5.90;4.70;;;4.10;99.90;;;;;;5097003;28;20257;-64
2023/03/10 10:49:51;;;;;;;5.45;4.57;;;4.00;99.90;;;;;;5096449;28;20180;-66
2023/03/10 10:54:53;;;;;;;5.57;5.07;;;4.00;99.90;;;;;;5077345;22;20234;-62
2023/03/10 10:57:22;;;;;;;5.45;4.70;;;4.00;99.90;;;;;;5055430;28;20428;-65
2023/03/10 10:59:49;;;;;;;4.88;4.25;;;4.00;99.90;;;;;;5054846;28;20679;-63
2023/03/10 11:02:27;;;;;;;6.35;4.78;;;4.00;99.90;;;;;;5055857;28;20211;-65
2023/03/10 11:04:53;;;;;;;5.78;4.35;;;4.00;99.90;;;;;;5035549;28;20217;-63
2023/03/10 11:07:26;;;;;;;5.55;4.20;;;4.00;99.90;;;;;;5035052;28;20206;-64
2023/03/10 11:09:56;;;;;;;8.55;5.50;;;4.00;99.90;;;;;;5035078;28;20193;-63
2023/03/10 11:12:29;;;;;;;6.82;5.63;;;4.10;99.90;;;;;;5035112;28;20586;-62
2023/03/10 11:15:11;;;;;;;6.78;5.50;;;4.20;99.90;;;;;;5036940;28;20190;-63
2023/03/10 11:17:42;;;;;;;5.35;3.60;;;4.30;99.90;;;;;;5038405;28;20205;-63
2023/03/10 11:20:24;;;;;;;5.40;4.15;;;4.30;99.90;;;;;;5040117;28;20253;-64
2023/03/10 11:22:59;;;;;;;4.40;3.50;;;4.30;99.90;;;;;;5042110;28;20218;-65
2023/03/10 11:25:35;;;;;;;3.30;2.92;;;4.40;99.90;;;;;;5038154;28;20187;-62
2023/03/10 11:28:18;;;;;;;3.42;2.78;;;4.40;99.90;;;;;;5037007;28;20668;-64
2023/03/10 11:30:52;;;;;;;6.13;2.97;;;4.40;99.90;;;;;;5037240;28;20186;-63
2023/03/10 11:33:27;;;;;;;3.13;2.53;;;4.40;99.90;;;;;;5036115;28;20254;-62
2023/03/10 11:35:59;;;;;;;2.83;2.40;;;4.50;99.90;;;;;;5036555;28;20557;-61
2023/03/10 11:38:34;;;;;;;4.65;3.92;;;4.50;99.90;;;;;;5035598;28;20186;-62
2023/03/10 11:41:07;;;;;;;4.10;3.10;;;4.50;99.90;;;;;;5035371;28;20186;-62
2023/03/10 11:43:48;;;;;;;4.28;3.25;;;4.50;99.90;;;;;;5035852;28;20305;-62
2023/03/10 11:46:23;;;;;;;4.05;3.65;;;4.50;99.90;;;;;;5035205;28;20198;-65
2023/03/10 11:48:57;;;;;;;2.70;2.50;;;4.60;99.90;;;;;;5035249;28;20208;-63
2023/03/10 11:51:29;;;;;;;2.83;2.28;;;4.70;99.90;;;;;;5035116;28;20191;-63
2023/03/10 11:53:58;;;;;;;3.38;2.90;;;4.60;99.90;;;;;;5035364;28;20233;-64
2023/03/10 11:56:27;;;;;;;3.30;2.78;;;4.50;99.90;;;;;;5031950;28;20202;-62
2023/03/10 11:58:57;;;;;;;3.35;2.53;;;4.60;99.90;;;;;;5035385;28;20202;-64
2023/03/10 12:01:29;;;;;;;3.40;3.05;;;4.60;99.90;;;;;;5034301;28;20213;-63
2023/03/10 12:04:02;;;;;;;3.17;2.75;;;4.60;99.90;;;;;;5033026;28;20284;-63
2023/03/10 12:06:35;;;;;;;3.00;2.70;;;4.60;99.90;;;;;;5038641;28;20212;-63
2023/03/10 12:09:04;;;;;;;3.00;2.70;;;4.50;99.90;;;;;;5037415;28;20198;-63
2023/03/10 12:11:35;;;;;;;4.88;3.00;;;4.40;99.90;;;;;;5032313;28;20221;-63
2023/03/10 12:14:02;;;;;;;3.38;2.70;;;4.40;99.90;;;;;;5033752;28;20218;-62
2023/03/10 12:16:33;;;;;;;5.82;3.20;;;4.40;99.90;;;;;;5034222;28;20263;-62
2023/03/10 12:19:00;;;;;;;5.68;3.28;;;4.40;99.90;;;;;;5032621;28;20676;-63
2023/03/10 12:21:27;;;;;;;4.00;2.90;;;4.30;99.90;;;;;;5032915;28;20229;-63
2023/03/10 12:23:56;;;;;;;6.03;4.13;;;4.30;99.90;;;;;;5032768;28;20218;-62
2023/03/10 12:26:59;;;;;;;5.07;4.32;;;4.20;99.90;;;;;;5032696;28;20203;-63
2023/03/10 12:29:34;;;;;;;4.95;3.72;;;4.20;99.90;;;;;;5034596;28;20207;-62
2023/03/10 12:32:01;;;;;;;5.05;3.75;;;4.20;99.90;;;;;;5036604;28;20576;-61
2023/03/10 12:34:30;;;;;;;6.80;4.03;;;4.20;99.90;;;;;;5023378;28;20230;-61
2023/03/10 12:37:05;;;;;;;7.65;4.80;;;4.10;99.90;;;;;;5038948;28;20206;-61
2023/03/10 12:39:40;;;;;;;5.47;3.72;;;4.00;99.90;;;;;;5038899;28;20197;-61
2023/03/10 12:42:30;;;;;;;5.90;4.00;;;3.90;99.90;;;;;;5037067;28;20197;-60
2023/03/10 12:45:15;;;;;;;5.25;3.85;;;3.80;99.90;;;;;;5034491;28;20195;-63
2023/03/10 12:47:52;;;;;;;7.95;3.78;;;3.80;99.90;;;;;;5042088;28;20187;-63
2023/03/10 12:50:32;;;;;;;7.20;4.60;;;3.80;99.90;;;;;;5039868;28;20190;-63
2023/03/10 12:53:07;;;;;;;4.50;3.60;;;3.90;99.90;;;;;;5032785;28;20218;-61
2023/03/10 12:55:34;;;;;;;4.47;3.35;;;3.90;99.90;;;;;;5037571;28;20194;-61
2023/03/10 12:58:09;;;;;;;3.97;3.05;;;4.00;99.90;;;;;;5033488;28;20200;-61
2023/03/10 13:00:45;;;;;;;4.95;3.00;;;4.10;99.90;;;;;;5028554;28;20195;-62
2023/03/10 13:03:29;;;;;;;3.97;3.00;;;4.20;99.90;;;;;;5035269;28;20218;-63
2023/03/10 13:06:05;;;;;;;3.30;2.50;;;4.30;99.90;;;;;;5035568;28;20198;-61
2023/03/10 13:08:42;;;;;;;2.65;2.22;;;4.40;99.90;;;;;;5029582;28;20222;-59
2023/03/10 13:11:22;;;;;;;2.67;2.45;;;4.40;99.90;;;;;;5036558;28;20229;-62